sensor_id;sensor_type;location;lat;lon;timestamp;temperature;humidity
7842;DHT22;3966;51.052;13.820;2023-03-23T00:01:04;12.60;99.90
7842;DHT22;3966;51.052;13.820;2023-03-23T00:03:31;12.70;99.90
7842;DHT22;3966;51.052;13.820;2023-03-23T00:05:59;12.80;99.90
7842;DHT22;3966;51.052;13.820;2023-03-23T00:08:36;12.80;99.90
7842;DHT22;3966;51.052;13.820;2023-03-23T00:11:22;12.80;99.90
7842;DHT22;3966;51.052;13.820;2023-03-23T00:13:50;12.70;99.90
7842;DHT22;3966;51.052;13.820;2023-03-23T00:16:23;12.80;99.90
7842;DHT22;3966;51.052;13.820;2023-03-23T00:19:00;12.90;99.90
7842;DHT22;3966;51.052;13.820;2023-03-23T00:21:29;13.10;99.90
7842;DHT22;3966;51.052;13.820;2023-03-23T00:24:08;13.20;99.90
7842;DHT22;3966;51.052;13.820;2023-03-23T00:26:36;13.30;99.90
7842;DHT22;3966;51.052;13.820;2023-03-23T00:29:08;13.30;99.90
7842;DHT22;3966;51.052;13.820;2023-03-23T00:31:35;13.40;99.90
7842;DHT22;3966;51.052;13.820;2023-03-23T00:34:04;13.30;99.90
7842;DHT22;3966;51.052;13.820;2023-03-23T00:36:34;13.30;99.90
7842;DHT22;3966;51.052;13.820;2023-03-23T00:39:03;13.30;99.90
7842;DHT22;3966;51.052;13.820;2023-03-23T00:41:30;13.30;99.90
7842;DHT22;3966;51.052;13.820;2023-03-23T00:43:57;13.40;99.90
7842;DHT22;3966;51.052;13.820;2023-03-23T00:46:26;13.40;99.90
7842;DHT22;3966;51.052;13.820;2023-03-23T00:48:54;13.40;99.90
7842;DHT22;3966;51.052;13.820;2023-03-23T00:51:19;13.40;99.90
7842;DHT22;3966;51.052;13.820;2023-03-23T00:53:46;13.40;99.90
7842;DHT22;3966;51.052;13.820;2023-03-23T00:56:12;13.50;99.90
7842;DHT22;3966;51.052;13.820;2023-03-23T00:58:38;13.50;99.90
7842;DHT22;3966;51.052;13.820;2023-03-23T01:01:04;13.50;99.90
7842;DHT22;3966;51.052;13.820;2023-03-23T01:03:30;13.50;99.90
7842;DHT22;3966;51.052;13.820;2023-03-23T01:05:56;13.50;99.90
7842;DHT22;3966;51.052;13.820;2023-03-23T01:08:23;13.60;99.90
7842;DHT22;3966;51.052;13.820;2023-03-23T01:10:50;13.60;99.90
7842;DHT22;3966;51.052;13.820;2023-03-23T01:13:16;13.60;99.90
7842;DHT22;3966;51.052;13.820;2023-03-23T01:15:42;13.70;99.90
7842;DHT22;3966;51.052;13.820;2023-03-23T01:18:09;13.80;99.90
7842;DHT22;3966;51.052;13.820;2023-03-23T01:20:36;13.80;99.90
7842;DHT22;3966;51.052;13.820;2023-03-23T01:23:03;13.80;99.90
7842;DHT22;3966;51.052;13.820;2023-03-23T01:25:35;13.90;99.90
7842;DHT22;3966;51.052;13.820;2023-03-23T01:28:01;13.90;99.90
7842;DHT22;3966;51.052;13.820;2023-03-23T01:30:27;13.90;99.90
7842;DHT22;3966;51.052;13.820;2023-03-23T01:32:54;13.90;99.90
7842;DHT22;3966;51.052;13.820;2023-03-23T01:35:20;14.00;99.90
7842;DHT22;3966;51.052;13.820;2023-03-23T01:37:46;14.00;99.90
7842;DHT22;3966;51.052;13.820;2023-03-23T01:40:13;14.00;99.90
7842;DHT22;3966;51.052;13.820;2023-03-23T01:42:40;14.10;99.90
7842;DHT22;3966;51.052;13.820;2023-03-23T01:45:23;14.00;99.90
7842;DHT22;3966;51.052;13.820;2023-03-23T01:47:55;14.10;99.90
7842;DHT22;3966;51.052;13.820;2023-03-23T01:50:24;14.10;99.90
7842;DHT22;3966;51.052;13.820;2023-03-23T01:52:52;14.20;99.90
7842;DHT22;3966;51.052;13.820;2023-03-23T01:55:19;14.20;99.90
7842;DHT22;3966;51.052;13.820;2023-03-23T01:57:45;14.20;99.90
7842;DHT22;3966;51.052;13.820;2023-03-23T02:00:11;14.10;99.90
7842;DHT22;3966;51.052;13.820;2023-03-23T02:02:43;14.20;99.90
7842;DHT22;3966;51.052;13.820;2023-03-23T02:05:13;14.10;99.90
7842;DHT22;3966;51.052;13.820;2023-03-23T02:07:39;14.10;99.90
7842;DHT22;3966;51.052;13.820;2023-03-23T02:10:05;14.10;99.90
7842;DHT22;3966;51.052;13.820;2023-03-23T02:12:32;14.10;99.90
7842;DHT22;3966;51.052;13.820;2023-03-23T02:14:57;14.20;99.90
7842;DHT22;3966;51.052;13.820;2023-03-23T02:17:36;14.20;99.90
7842;DHT22;3966;51.052;13.820;2023-03-23T02:20:13;14.30;99.90
7842;DHT22;3966;51.052;13.820;2023-03-23T02:25:58;14.30;99.90
7842;DHT22;3966;51.052;13.820;2023-03-23T02:39:40;14.30;99.90
7842;DHT22;3966;51.052;13.820;2023-03-23T02:42:09;14.30;99.90
7842;DHT22;3966;51.052;13.820;2023-03-23T02:44:40;14.20;99.90
7842;DHT22;3966;51.052;13.820;2023-03-23T02:47:12;14.20;99.90
7842;DHT22;3966;51.052;13.820;2023-03-23T02:49:41;14.10;99.90
7842;DHT22;3966;51.052;13.820;2023-03-23T02:52:11;14.10;99.90
7842;DHT22;3966;51.052;13.820;2023-03-23T02:54:41;14.10;99.90
7842;DHT22;3966;51.052;13.820;2023-03-23T02:57:08;14.10;99.90
7842;DHT22;3966;51.052;13.820;2023-03-23T02:59:34;14.00;99.90
7842;DHT22;3966;51.052;13.820;2023-03-23T03:02:09;14.00;99.90
7842;DHT22;3966;51.052;13.820;2023-03-23T03:04:38;14.00;99.90
7842;DHT22;3966;51.052;13.820;2023-03-23T03:10:02;14.00;99.90
7842;DHT22;3966;51.052;13.820;2023-03-23T03:16:03;13.90;99.90
7842;DHT22;3966;51.052;13.820;2023-03-23T03:18:54;13.80;99.90
7842;DHT22;3966;51.052;13.820;2023-03-23T03:21:23;13.80;99.90
7842;DHT22;3966;51.052;13.820;2023-03-23T03:23:55;13.70;99.90
7842;DHT22;3966;51.052;13.820;2023-03-23T03:26:22;13.60;99.90
7842;DHT22;3966;51.052;13.820;2023-03-23T03:28:52;13.30;99.90
7842;DHT22;3966;51.052;13.820;2023-03-23T03:31:21;13.30;99.90
7842;DHT22;3966;51.052;13.820;2023-03-23T03:33:47;13.20;99.90
7842;DHT22;3966;51.052;13.820;2023-03-23T03:36:19;13.30;99.90
7842;DHT22;3966;51.052;13.820;2023-03-23T03:38:48;13.40;99.90
7842;DHT22;3966;51.052;13.820;2023-03-23T03:41:14;13.60;99.90
7842;DHT22;3966;51.052;13.820;2023-03-23T03:43:40;13.60;99.90
7842;DHT22;3966;51.052;13.820;2023-03-23T03:46:05;13.70;99.90
7842;DHT22;3966;51.052;13.820;2023-03-23T03:48:31;13.70;99.90
7842;DHT22;3966;51.052;13.820;2023-03-23T03:50:57;13.80;99.90
7842;DHT22;3966;51.052;13.820;2023-03-23T03:53:23;13.80;99.90
7842;DHT22;3966;51.052;13.820;2023-03-23T03:55:49;13.80;99.90
7842;DHT22;3966;51.052;13.820;2023-03-23T03:58:15;13.90;99.90
7842;DHT22;3966;51.052;13.820;2023-03-23T04:00:41;14.00;99.90
7842;DHT22;3966;51.052;13.820;2023-03-23T04:03:08;14.00;99.90
7842;DHT22;3966;51.052;13.820;2023-03-23T04:05:34;14.00;99.90
7842;DHT22;3966;51.052;13.820;2023-03-23T04:08:02;14.10;99.90
7842;DHT22;3966;51.052;13.820;2023-03-23T04:10:29;14.10;99.90
7842;DHT22;3966;51.052;13.820;2023-03-23T04:12:55;14.10;99.90
7842;DHT22;3966;51.052;13.820;2023-03-23T04:15:21;14.10;99.90
7842;DHT22;3966;51.052;13.820;2023-03-23T04:17:47;14.00;99.90
7842;DHT22;3966;51.052;13.820;2023-03-23T04:20:13;13.90;99.90
7842;DHT22;3966;51.052;13.820;2023-03-23T04:22:47;13.90;99.90
7842;DHT22;3966;51.052;13.820;2023-03-23T04:25:18;13.90;99.90
7842;DHT22;3966;51.052;13.820;2023-03-23T04:27:46;14.00;99.90
7842;DHT22;3966;51.052;13.820;2023-03-23T04:30:18;14.00;99.90
7842;DHT22;3966;51.052;13.820;2023-03-23T04:32:45;14.00;99.90
7842;DHT22;3966;51.052;13.820;2023-03-23T04:35:13;14.00;99.90
7842;DHT22;3966;51.052;13.820;2023-03-23T04:37:39;14.00;99.90
7842;DHT22;3966;51.052;13.820;2023-03-23T04:40:07;14.00;99.90
7842;DHT22;3966;51.052;13.820;2023-03-23T04:42:37;14.00;99.90
7842;DHT22;3966;51.052;13.820;2023-03-23T04:45:04;14.00;99.90
7842;DHT22;3966;51.052;13.820;2023-03-23T04:47:33;14.00;99.90
7842;DHT22;3966;51.052;13.820;2023-03-23T04:49:59;14.10;99.90
7842;DHT22;3966;51.052;13.820;2023-03-23T04:52:27;14.00;99.90
7842;DHT22;3966;51.052;13.820;2023-03-23T04:54:54;14.00;99.90
7842;DHT22;3966;51.052;13.820;2023-03-23T04:57:23;14.00;99.90
7842;DHT22;3966;51.052;13.820;2023-03-23T04:59:51;14.00;99.90
7842;DHT22;3966;51.052;13.820;2023-03-23T05:02:16;14.00;99.90
7842;DHT22;3966;51.052;13.820;2023-03-23T05:04:42;14.00;99.90
7842;DHT22;3966;51.052;13.820;2023-03-23T05:07:08;14.00;99.90
7842;DHT22;3966;51.052;13.820;2023-03-23T05:09:35;13.90;99.90
7842;DHT22;3966;51.052;13.820;2023-03-23T05:12:05;13.90;99.90
7842;DHT22;3966;51.052;13.820;2023-03-23T05:14:31;13.90;99.90
7842;DHT22;3966;51.052;13.820;2023-03-23T05:16:57;13.90;99.90
7842;DHT22;3966;51.052;13.820;2023-03-23T05:19:22;13.90;99.90
7842;DHT22;3966;51.052;13.820;2023-03-23T05:21:48;13.90;99.90
7842;DHT22;3966;51.052;13.820;2023-03-23T05:24:13;13.90;99.90
7842;DHT22;3966;51.052;13.820;2023-03-23T05:26:39;14.00;99.90
7842;DHT22;3966;51.052;13.820;2023-03-23T05:29:05;14.00;99.90
7842;DHT22;3966;51.052;13.820;2023-03-23T05:31:31;14.00;99.90
7842;DHT22;3966;51.052;13.820;2023-03-23T05:33:57;14.00;99.90
7842;DHT22;3966;51.052;13.820;2023-03-23T05:36:23;14.00;99.90
7842;DHT22;3966;51.052;13.820;2023-03-23T05:38:51;14.00;99.90
7842;DHT22;3966;51.052;13.820;2023-03-23T05:41:16;14.00;99.90
7842;DHT22;3966;51.052;13.820;2023-03-23T05:43:42;14.00;99.90
7842;DHT22;3966;51.052;13.820;2023-03-23T05:46:08;14.10;99.90
7842;DHT22;3966;51.052;13.820;2023-03-23T05:48:34;14.10;99.90
7842;DHT22;3966;51.052;13.820;2023-03-23T05:51:00;14.20;99.90
7842;DHT22;3966;51.052;13.820;2023-03-23T05:53:26;14.20;99.90
7842;DHT22;3966;51.052;13.820;2023-03-23T05:55:52;14.20;99.90
7842;DHT22;3966;51.052;13.820;2023-03-23T05:58:18;14.30;99.90
7842;DHT22;3966;51.052;13.820;2023-03-23T06:00:44;14.30;99.90
7842;DHT22;3966;51.052;13.820;2023-03-23T06:03:12;14.30;99.90
7842;DHT22;3966;51.052;13.820;2023-03-23T06:05:42;14.40;99.90
7842;DHT22;3966;51.052;13.820;2023-03-23T06:08:09;14.50;99.90
7842;DHT22;3966;51.052;13.820;2023-03-23T06:10:35;14.50;99.90
7842;DHT22;3966;51.052;13.820;2023-03-23T06:13:02;14.40;99.90
7842;DHT22;3966;51.052;13.820;2023-03-23T06:15:28;14.40;99.90
7842;DHT22;3966;51.052;13.820;2023-03-23T06:18:00;14.50;99.90
7842;DHT22;3966;51.052;13.820;2023-03-23T06:20:26;14.50;99.90
7842;DHT22;3966;51.052;13.820;2023-03-23T06:22:52;14.40;99.90
7842;DHT22;3966;51.052;13.820;2023-03-23T06:25:18;14.40;99.90
7842;DHT22;3966;51.052;13.820;2023-03-23T06:27:43;14.40;99.90
7842;DHT22;3966;51.052;13.820;2023-03-23T06:30:11;14.50;99.90
7842;DHT22;3966;51.052;13.820;2023-03-23T06:32:39;14.50;99.90
7842;DHT22;3966;51.052;13.820;2023-03-23T06:35:06;14.60;99.90
7842;DHT22;3966;51.052;13.820;2023-03-23T06:37:35;14.60;99.90
7842;DHT22;3966;51.052;13.820;2023-03-23T06:40:02;14.60;99.90
7842;DHT22;3966;51.052;13.820;2023-03-23T06:42:30;14.70;99.90
7842;DHT22;3966;51.052;13.820;2023-03-23T06:44:55;14.70;99.90
7842;DHT22;3966;51.052;13.820;2023-03-23T06:47:23;14.70;99.90
7842;DHT22;3966;51.052;13.820;2023-03-23T06:49:49;14.80;99.90
7842;DHT22;3966;51.052;13.820;2023-03-23T06:52:15;14.80;99.90
7842;DHT22;3966;51.052;13.820;2023-03-23T06:54:41;14.90;99.90
7842;DHT22;3966;51.052;13.820;2023-03-23T06:57:08;14.90;99.90
7842;DHT22;3966;51.052;13.820;2023-03-23T06:59:37;14.90;99.90
7842;DHT22;3966;51.052;13.820;2023-03-23T07:02:10;15.00;99.90
7842;DHT22;3966;51.052;13.820;2023-03-23T07:04:37;15.00;99.90
7842;DHT22;3966;51.052;13.820;2023-03-23T07:07:12;15.20;99.90
7842;DHT22;3966;51.052;13.820;2023-03-23T07:09:40;15.30;99.90
7842;DHT22;3966;51.052;13.820;2023-03-23T07:12:06;15.40;99.90
7842;DHT22;3966;51.052;13.820;2023-03-23T07:14:32;15.50;99.90
7842;DHT22;3966;51.052;13.820;2023-03-23T07:16:58;15.60;99.90
7842;DHT22;3966;51.052;13.820;2023-03-23T07:19:24;15.60;99.90
7842;DHT22;3966;51.052;13.820;2023-03-23T07:21:49;15.80;99.90
7842;DHT22;3966;51.052;13.820;2023-03-23T07:24:16;15.80;99.90
7842;DHT22;3966;51.052;13.820;2023-03-23T07:26:42;15.80;99.90
7842;DHT22;3966;51.052;13.820;2023-03-23T07:29:09;15.90;99.90
7842;DHT22;3966;51.052;13.820;2023-03-23T07:31:35;16.00;99.90
7842;DHT22;3966;51.052;13.820;2023-03-23T07:34:01;16.00;99.90
7842;DHT22;3966;51.052;13.820;2023-03-23T07:36:28;16.00;99.90
7842;DHT22;3966;51.052;13.820;2023-03-23T07:38:54;16.00;99.90
7842;DHT22;3966;51.052;13.820;2023-03-23T07:41:20;16.00;99.90
7842;DHT22;3966;51.052;13.820;2023-03-23T07:43:46;16.00;99.90
7842;DHT22;3966;51.052;13.820;2023-03-23T07:46:12;16.10;99.90
7842;DHT22;3966;51.052;13.820;2023-03-23T07:48:38;16.00;99.90
7842;DHT22;3966;51.052;13.820;2023-03-23T07:51:05;16.00;99.90
7842;DHT22;3966;51.052;13.820;2023-03-23T07:53:31;16.00;99.90
7842;DHT22;3966;51.052;13.820;2023-03-23T07:55:57;16.10;99.90
7842;DHT22;3966;51.052;13.820;2023-03-23T07:58:23;16.10;99.90
7842;DHT22;3966;51.052;13.820;2023-03-23T08:00:49;16.10;99.90
7842;DHT22;3966;51.052;13.820;2023-03-23T08:03:15;16.20;99.90
7842;DHT22;3966;51.052;13.820;2023-03-23T08:05:42;16.20;99.90
7842;DHT22;3966;51.052;13.820;2023-03-23T08:08:08;16.20;99.90
7842;DHT22;3966;51.052;13.820;2023-03-23T08:10:35;16.20;99.90
7842;DHT22;3966;51.052;13.820;2023-03-23T08:13:01;16.30;99.90
7842;DHT22;3966;51.052;13.820;2023-03-23T08:15:27;16.20;99.90
7842;DHT22;3966;51.052;13.820;2023-03-23T08:17:53;16.20;99.90
7842;DHT22;3966;51.052;13.820;2023-03-23T08:20:20;16.20;99.90
7842;DHT22;3966;51.052;13.820;2023-03-23T08:22:52;16.30;99.90
7842;DHT22;3966;51.052;13.820;2023-03-23T08:25:19;16.20;99.90
7842;DHT22;3966;51.052;13.820;2023-03-23T08:27:45;16.20;99.90
7842;DHT22;3966;51.052;13.820;2023-03-23T08:30:15;16.10;99.90
7842;DHT22;3966;51.052;13.820;2023-03-23T08:32:42;16.00;99.90
7842;DHT22;3966;51.052;13.820;2023-03-23T08:35:09;16.00;99.90
7842;DHT22;3966;51.052;13.820;2023-03-23T08:37:36;16.00;99.90
7842;DHT22;3966;51.052;13.820;2023-03-23T08:40:06;15.90;99.90
7842;DHT22;3966;51.052;13.820;2023-03-23T08:42:40;15.90;99.90
7842;DHT22;3966;51.052;13.820;2023-03-23T08:45:07;16.00;99.90
7842;DHT22;3966;51.052;13.820;2023-03-23T08:47:34;15.90;99.90
7842;DHT22;3966;51.052;13.820;2023-03-23T08:50:01;15.90;99.90
7842;DHT22;3966;51.052;13.820;2023-03-23T08:52:27;15.80;99.90
7842;DHT22;3966;51.052;13.820;2023-03-23T08:54:54;15.80;99.90
7842;DHT22;3966;51.052;13.820;2023-03-23T08:57:20;15.80;99.90
7842;DHT22;3966;51.052;13.820;2023-03-23T08:59:45;15.80;99.90
7842;DHT22;3966;51.052;13.820;2023-03-23T09:02:11;15.80;99.90
7842;DHT22;3966;51.052;13.820;2023-03-23T09:04:38;15.80;99.90
7842;DHT22;3966;51.052;13.820;2023-03-23T09:07:04;15.70;99.90
7842;DHT22;3966;51.052;13.820;2023-03-23T09:09:31;15.70;99.90
7842;DHT22;3966;51.052;13.820;2023-03-23T09:11:59;15.70;99.90
7842;DHT22;3966;51.052;13.820;2023-03-23T09:14:25;15.60;99.90
7842;DHT22;3966;51.052;13.820;2023-03-23T09:16:50;15.70;99.90
7842;DHT22;3966;51.052;13.820;2023-03-23T09:19:16;15.70;99.90
7842;DHT22;3966;51.052;13.820;2023-03-23T09:21:43;15.70;99.90
7842;DHT22;3966;51.052;13.820;2023-03-23T09:24:11;15.60;99.90
7842;DHT22;3966;51.052;13.820;2023-03-23T09:26:37;15.60;99.90
7842;DHT22;3966;51.052;13.820;2023-03-23T09:29:03;15.60;99.90
7842;DHT22;3966;51.052;13.820;2023-03-23T09:31:28;15.50;99.90
7842;DHT22;3966;51.052;13.820;2023-03-23T09:33:58;15.50;99.90
7842;DHT22;3966;51.052;13.820;2023-03-23T09:36:24;15.40;99.90
7842;DHT22;3966;51.052;13.820;2023-03-23T09:38:51;15.50;99.90
7842;DHT22;3966;51.052;13.820;2023-03-23T09:44:43;15.30;99.90
7842;DHT22;3966;51.052;13.820;2023-03-23T09:49:53;15.30;99.90
7842;DHT22;3966;51.052;13.820;2023-03-23T09:52:20;15.30;99.90
7842;DHT22;3966;51.052;13.820;2023-03-23T09:54:50;15.40;99.90
7842;DHT22;3966;51.052;13.820;2023-03-23T10:00:12;15.40;99.90
7842;DHT22;3966;51.052;13.820;2023-03-23T10:03:00;15.30;99.90
7842;DHT22;3966;51.052;13.820;2023-03-23T10:07:56;15.30;99.90
7842;DHT22;3966;51.052;13.820;2023-03-23T10:10:31;15.40;99.90
7842;DHT22;3966;51.052;13.820;2023-03-23T10:13:03;15.60;99.90
7842;DHT22;3966;51.052;13.820;2023-03-23T10:15:33;15.70;99.90
7842;DHT22;3966;51.052;13.820;2023-03-23T10:18:02;15.80;99.90
7842;DHT22;3966;51.052;13.820;2023-03-23T10:20:36;15.70;99.90
7842;DHT22;3966;51.052;13.820;2023-03-23T10:26:00;15.80;99.90
7842;DHT22;3966;51.052;13.820;2023-03-23T10:28:45;15.80;99.90
7842;DHT22;3966;51.052;13.820;2023-03-23T10:31:20;15.90;99.90
7842;DHT22;3966;51.052;13.820;2023-03-23T10:33:49;15.90;99.90
7842;DHT22;3966;51.052;13.820;2023-03-23T10:36:34;15.90;99.90
7842;DHT22;3966;51.052;13.820;2023-03-23T10:39:13;15.90;99.90
7842;DHT22;3966;51.052;13.820;2023-03-23T10:41:40;16.00;99.90
7842;DHT22;3966;51.052;13.820;2023-03-23T10:44:17;15.90;99.90
7842;DHT22;3966;51.052;13.820;2023-03-23T10:46:59;16.00;99.90
7842;DHT22;3966;51.052;13.820;2023-03-23T10:49:30;16.10;99.90
7842;DHT22;3966;51.052;13.820;2023-03-23T10:52:24;16.10;99.90
7842;DHT22;3966;51.052;13.820;2023-03-23T10:55:08;16.10;99.90
7842;DHT22;3966;51.052;13.820;2023-03-23T10:57:37;16.20;99.90
7842;DHT22;3966;51.052;13.820;2023-03-23T11:02:40;16.50;99.90
7842;DHT22;3966;51.052;13.820;2023-03-23T11:05:19;16.50;99.90
7842;DHT22;3966;51.052;13.820;2023-03-23T11:07:53;16.50;99.90
7842;DHT22;3966;51.052;13.820;2023-03-23T11:12:49;16.50;99.90
7842;DHT22;3966;51.052;13.820;2023-03-23T11:15:29;16.50;99.90
7842;DHT22;3966;51.052;13.820;2023-03-23T11:18:10;16.50;99.90
7842;DHT22;3966;51.052;13.820;2023-03-23T11:20:40;16.50;99.90
7842;DHT22;3966;51.052;13.820;2023-03-23T11:23:21;16.40;99.90
7842;DHT22;3966;51.052;13.820;2023-03-23T11:25:57;16.40;99.90
7842;DHT22;3966;51.052;13.820;2023-03-23T11:28:29;16.40;99.90
7842;DHT22;3966;51.052;13.820;2023-03-23T11:30:58;16.40;99.90
7842;DHT22;3966;51.052;13.820;2023-03-23T11:33:28;16.30;99.90
7842;DHT22;3966;51.052;13.820;2023-03-23T11:35:54;16.30;99.90
7842;DHT22;3966;51.052;13.820;2023-03-23T11:38:23;16.30;99.90
7842;DHT22;3966;51.052;13.820;2023-03-23T11:40:52;16.20;99.90
7842;DHT22;3966;51.052;13.820;2023-03-23T11:43:23;16.20;99.90
7842;DHT22;3966;51.052;13.820;2023-03-23T11:46:33;16.20;99.90
7842;DHT22;3966;51.052;13.820;2023-03-23T11:49:20;16.10;99.90
7842;DHT22;3966;51.052;13.820;2023-03-23T11:51:51;16.20;99.90
7842;DHT22;3966;51.052;13.820;2023-03-23T11:54:40;16.10;99.90
7842;DHT22;3966;51.052;13.820;2023-03-23T11:57:10;16.10;99.90
7842;DHT22;3966;51.052;13.820;2023-03-23T11:59:39;16.10;99.90
7842;DHT22;3966;51.052;13.820;2023-03-23T12:02:46;16.00;99.90
7842;DHT22;3966;51.052;13.820;2023-03-23T12:07:56;15.60;99.90
7842;DHT22;3966;51.052;13.820;2023-03-23T12:15:47;15.60;99.90
7842;DHT22;3966;51.052;13.820;2023-03-23T12:26:31;15.40;99.90
7842;DHT22;3966;51.052;13.820;2023-03-23T12:29:49;15.40;99.90
7842;DHT22;3966;51.052;13.820;2023-03-23T12:32:28;15.50;99.90
7842;DHT22;3966;51.052;13.820;2023-03-23T12:47:55;16.00;99.90
7842;DHT22;3966;51.052;13.820;2023-03-23T12:50:37;15.90;99.90
7842;DHT22;3966;51.052;13.820;2023-03-23T12:53:22;16.00;99.90
7842;DHT22;3966;51.052;13.820;2023-03-23T12:56:02;16.10;99.90
7842;DHT22;3966;51.052;13.820;2023-03-23T12:58:33;16.20;99.90
7842;DHT22;3966;51.052;13.820;2023-03-23T13:03:55;16.10;99.90
7842;DHT22;3966;51.052;13.820;2023-03-23T13:06:35;15.90;99.90
7842;DHT22;3966;51.052;13.820;2023-03-23T13:09:20;15.80;99.90
7842;DHT22;3966;51.052;13.820;2023-03-23T13:11:49;15.90;99.90
7842;DHT22;3966;51.052;13.820;2023-03-23T13:17:06;15.90;99.90
7842;DHT22;3966;51.052;13.820;2023-03-23T13:22:42;16.00;99.90
7842;DHT22;3966;51.052;13.820;2023-03-23T13:25:17;16.10;99.90
7842;DHT22;3966;51.052;13.820;2023-03-23T13:27:44;16.10;99.90
7842;DHT22;3966;51.052;13.820;2023-03-23T13:30:21;16.20;99.90
7842;DHT22;3966;51.052;13.820;2023-03-23T13:32:51;16.30;99.90
7842;DHT22;3966;51.052;13.820;2023-03-23T13:35:19;16.30;99.90
7842;DHT22;3966;51.052;13.820;2023-03-23T13:37:50;16.20;99.90
7842;DHT22;3966;51.052;13.820;2023-03-23T13:40:29;16.20;99.90
7842;DHT22;3966;51.052;13.820;2023-03-23T13:42:57;16.30;99.90
7842;DHT22;3966;51.052;13.820;2023-03-23T13:48:23;16.40;99.90
7842;DHT22;3966;51.052;13.820;2023-03-23T13:50:52;16.50;99.90
7842;DHT22;3966;51.052;13.820;2023-03-23T13:53:28;16.60;99.90
7842;DHT22;3966;51.052;13.820;2023-03-23T13:56:16;16.80;99.90
7842;DHT22;3966;51.052;13.820;2023-03-23T13:59:04;16.90;99.90
7842;DHT22;3966;51.052;13.820;2023-03-23T14:01:40;16.90;99.90
7842;DHT22;3966;51.052;13.820;2023-03-23T14:04:14;16.90;99.90
7842;DHT22;3966;51.052;13.820;2023-03-23T14:06:40;17.20;99.90
7842;DHT22;3966;51.052;13.820;2023-03-23T14:09:31;17.40;99.90
7842;DHT22;3966;51.052;13.820;2023-03-23T14:12:06;17.40;99.90
7842;DHT22;3966;51.052;13.820;2023-03-23T14:14:48;18.00;99.90
7842;DHT22;3966;51.052;13.820;2023-03-23T14:17:24;18.50;99.90
7842;DHT22;3966;51.052;13.820;2023-03-23T14:19:52;18.60;99.90
7842;DHT22;3966;51.052;13.820;2023-03-23T14:22:31;18.80;99.90
7842;DHT22;3966;51.052;13.820;2023-03-23T14:25:12;18.70;99.90
7842;DHT22;3966;51.052;13.820;2023-03-23T14:27:38;18.90;99.90
7842;DHT22;3966;51.052;13.820;2023-03-23T14:30:07;19.20;99.90
7842;DHT22;3966;51.052;13.820;2023-03-23T14:32:34;19.20;99.90
7842;DHT22;3966;51.052;13.820;2023-03-23T14:35:26;18.40;99.90
7842;DHT22;3966;51.052;13.820;2023-03-23T14:37:53;18.30;99.90
7842;DHT22;3966;51.052;13.820;2023-03-23T14:40:20;18.20;99.90
7842;DHT22;3966;51.052;13.820;2023-03-23T14:42:47;17.80;99.90
7842;DHT22;3966;51.052;13.820;2023-03-23T14:45:16;17.50;99.90
7842;DHT22;3966;51.052;13.820;2023-03-23T14:47:48;17.40;99.90
7842;DHT22;3966;51.052;13.820;2023-03-23T14:50:26;17.20;99.90
7842;DHT22;3966;51.052;13.820;2023-03-23T14:52:52;17.10;99.90
7842;DHT22;3966;51.052;13.820;2023-03-23T14:55:22;17.10;99.90
7842;DHT22;3966;51.052;13.820;2023-03-23T14:57:50;16.90;99.90
7842;DHT22;3966;51.052;13.820;2023-03-23T15:00:30;16.80;99.90
7842;DHT22;3966;51.052;13.820;2023-03-23T15:02:59;16.90;99.90
7842;DHT22;3966;51.052;13.820;2023-03-23T15:07:54;16.80;99.90
7842;DHT22;3966;51.052;13.820;2023-03-23T15:10:22;16.70;99.90
7842;DHT22;3966;51.052;13.820;2023-03-23T15:12:49;16.80;99.90
7842;DHT22;3966;51.052;13.820;2023-03-23T15:15:31;16.70;99.90
7842;DHT22;3966;51.052;13.820;2023-03-23T15:17:59;16.80;99.90
7842;DHT22;3966;51.052;13.820;2023-03-23T15:20:31;16.90;99.90
7842;DHT22;3966;51.052;13.820;2023-03-23T15:23:05;16.80;99.90
7842;DHT22;3966;51.052;13.820;2023-03-23T15:25:33;16.90;99.90
7842;DHT22;3966;51.052;13.820;2023-03-23T15:28:14;16.90;99.90
7842;DHT22;3966;51.052;13.820;2023-03-23T15:30:55;16.90;99.90
7842;DHT22;3966;51.052;13.820;2023-03-23T15:33:24;16.80;99.90
7842;DHT22;3966;51.052;13.820;2023-03-23T15:35:56;16.80;99.90
7842;DHT22;3966;51.052;13.820;2023-03-23T15:38:32;16.60;99.90
7842;DHT22;3966;51.052;13.820;2023-03-23T15:41:02;16.50;99.90
7842;DHT22;3966;51.052;13.820;2023-03-23T15:43:35;16.50;99.90
7842;DHT22;3966;51.052;13.820;2023-03-23T15:46:20;16.50;99.90
7842;DHT22;3966;51.052;13.820;2023-03-23T15:51:26;16.50;99.90
7842;DHT22;3966;51.052;13.820;2023-03-23T15:53:54;16.40;99.90
7842;DHT22;3966;51.052;13.820;2023-03-23T15:56:20;16.40;99.90
7842;DHT22;3966;51.052;13.820;2023-03-23T15:58:46;16.40;99.90
7842;DHT22;3966;51.052;13.820;2023-03-23T16:01:18;16.40;99.90
7842;DHT22;3966;51.052;13.820;2023-03-23T16:04:15;16.40;99.90
7842;DHT22;3966;51.052;13.820;2023-03-23T16:06:40;16.40;99.90
7842;DHT22;3966;51.052;13.820;2023-03-23T16:09:07;16.30;99.90
7842;DHT22;3966;51.052;13.820;2023-03-23T16:11:36;16.30;99.90
7842;DHT22;3966;51.052;13.820;2023-03-23T16:14:02;16.30;99.90
7842;DHT22;3966;51.052;13.820;2023-03-23T16:16:30;16.30;99.90
7842;DHT22;3966;51.052;13.820;2023-03-23T16:18:56;16.30;99.90
7842;DHT22;3966;51.052;13.820;2023-03-23T16:21:22;16.30;99.90
7842;DHT22;3966;51.052;13.820;2023-03-23T16:23:48;16.30;99.90
7842;DHT22;3966;51.052;13.820;2023-03-23T16:26:15;16.20;99.90
7842;DHT22;3966;51.052;13.820;2023-03-23T16:28:43;16.20;99.90
7842;DHT22;3966;51.052;13.820;2023-03-23T16:31:09;16.20;99.90
7842;DHT22;3966;51.052;13.820;2023-03-23T16:33:35;16.20;99.90
7842;DHT22;3966;51.052;13.820;2023-03-23T16:36:11;16.20;99.90
7842;DHT22;3966;51.052;13.820;2023-03-23T16:38:37;16.20;99.90
7842;DHT22;3966;51.052;13.820;2023-03-23T16:41:03;16.10;99.90
7842;DHT22;3966;51.052;13.820;2023-03-23T16:43:29;16.10;99.90
7842;DHT22;3966;51.052;13.820;2023-03-23T16:45:56;16.10;99.90
7842;DHT22;3966;51.052;13.820;2023-03-23T16:48:22;16.10;99.90
7842;DHT22;3966;51.052;13.820;2023-03-23T16:50:48;16.20;99.90
7842;DHT22;3966;51.052;13.820;2023-03-23T16:53:15;16.10;99.90
7842;DHT22;3966;51.052;13.820;2023-03-23T16:55:41;16.10;99.90
7842;DHT22;3966;51.052;13.820;2023-03-23T16:58:12;15.90;99.90
7842;DHT22;3966;51.052;13.820;2023-03-23T17:00:38;15.90;99.90
7842;DHT22;3966;51.052;13.820;2023-03-23T17:03:05;15.90;99.90
7842;DHT22;3966;51.052;13.820;2023-03-23T17:05:31;15.80;99.90
7842;DHT22;3966;51.052;13.820;2023-03-23T17:07:57;15.80;99.90
7842;DHT22;3966;51.052;13.820;2023-03-23T17:10:26;15.80;99.90
7842;DHT22;3966;51.052;13.820;2023-03-23T17:12:53;15.80;99.90
7842;DHT22;3966;51.052;13.820;2023-03-23T17:15:19;15.70;99.90
7842;DHT22;3966;51.052;13.820;2023-03-23T17:17:45;15.70;99.90
7842;DHT22;3966;51.052;13.820;2023-03-23T17:20:12;15.60;99.90
7842;DHT22;3966;51.052;13.820;2023-03-23T17:22:38;15.60;99.90
7842;DHT22;3966;51.052;13.820;2023-03-23T17:25:05;15.50;99.90
7842;DHT22;3966;51.052;13.820;2023-03-23T17:27:33;15.50;99.90